QFA337 YSCB-YPAD
Flight info
| Callsign | QFA337 |
|---|---|
| Flight time | 1h 35m |
| Altitude | 36000 |
| Route | CB W148 WG Q60 KAKLU H309 AD |
| Aircraft | B738/M-SABDFGRVYL/LB2 |
Departure
| Time | 2026-05-04 04:50 |
|---|---|
| Airport | Canberra Airport (YSCB) |
Arrival
| Time | 2026-05-04 06:25 |
|---|---|
| Airport | Adelaide International Airport (YPAD) |
| Time | Latitude | Longitude | Altitude | Speed | Heading |
|---|---|---|---|---|---|
| 2026-05-04 04:21 | -35.30754 | 149.19142 | 1873 ft | 0 kts | 258° |
| 2026-05-04 04:42 | -35.30753 | 149.19147 | 1872 ft | 1 kts | 268° |
| 2026-05-04 04:42 | -35.30753 | 149.19165 | 1873 ft | 2 kts | 257° |
| 2026-05-04 04:42 | -35.30749 | 149.19183 | 1873 ft | 2 kts | 260° |
| 2026-05-04 04:43 | -35.30747 | 149.19202 | 1873 ft | 2 kts | 259° |
| 2026-05-04 04:43 | -35.30744 | 149.19219 | 1874 ft | 2 kts | 259° |
| 2026-05-04 04:43 | -35.30739 | 149.19237 | 1874 ft | 2 kts | 236° |
| 2026-05-04 04:43 | -35.30731 | 149.19249 | 1874 ft | 0 kts | 221° |
| 2026-05-04 04:44 | -35.30729 | 149.19250 | 1874 ft | 0 kts | 221° |
| 2026-05-04 04:47 | -35.30890 | 149.19238 | 1874 ft | 7 kts | 179° |
| 2026-05-04 04:47 | -35.30947 | 149.19239 | 1874 ft | 8 kts | 179° |
| 2026-05-04 04:47 | -35.31029 | 149.19238 | 1874 ft | 16 kts | 180° |
| 2026-05-04 04:47 | -35.31153 | 149.19238 | 1875 ft | 17 kts | 180° |
| 2026-05-04 04:48 | -35.31280 | 149.19238 | 1873 ft | 18 kts | 180° |
| 2026-05-04 04:49 | -35.31387 | 149.19444 | 1877 ft | 18 kts | 1° |
| 2026-05-04 04:49 | -35.31029 | 149.19444 | 1878 ft | 86 kts | 359° |
| 2026-05-04 04:49 | -35.30199 | 149.19441 | 1880 ft | 149 kts | 2° |
| 2026-05-04 04:49 | -35.29061 | 149.19458 | 2332 ft | 167 kts | 357° |
| 2026-05-04 04:50 | -35.27917 | 149.19462 | 3102 ft | 172 kts | 358° |
| 2026-05-04 04:50 | -35.26716 | 149.19584 | 3824 ft | 177 kts | 1° |
| 2026-05-04 04:50 | -35.25476 | 149.19768 | 4413 ft | 184 kts | 1° |
| 2026-05-04 04:50 | -35.24181 | 149.19934 | 5003 ft | 192 kts | 0° |
| 2026-05-04 04:51 | -35.22812 | 149.20094 | 5520 ft | 206 kts | 360° |
| 2026-05-04 04:51 | -35.21350 | 149.20267 | 6111 ft | 217 kts | 360° |
| 2026-05-04 04:51 | -35.19812 | 149.20454 | 6689 ft | 229 kts | 0° |
| 2026-05-04 04:51 | -35.18176 | 149.20653 | 7203 ft | 244 kts | 0° |
| 2026-05-04 04:52 | -35.16450 | 149.20862 | 7796 ft | 256 kts | 0° |
| 2026-05-04 04:52 | -35.14631 | 149.21052 | 8311 ft | 269 kts | 356° |
| 2026-05-04 04:52 | -35.12790 | 149.20632 | 8819 ft | 276 kts | 334° |
| 2026-05-04 04:52 | -35.11238 | 149.19251 | 9466 ft | 283 kts | 313° |
| 2026-05-04 04:53 | -35.10137 | 149.17268 | 10271 ft | 288 kts | 300° |
| 2026-05-04 04:53 | -35.09463 | 149.14947 | 10985 ft | 299 kts | 284° |
| 2026-05-04 04:53 | -35.09596 | 149.12371 | 11708 ft | 318 kts | 260° |
| 2026-05-04 04:53 | -35.10632 | 149.09939 | 12444 ft | 335 kts | 242° |
| 2026-05-04 04:54 | -35.12097 | 149.07689 | 13105 ft | 343 kts | 238° |
| 2026-05-04 04:54 | -35.13660 | 149.05470 | 13787 ft | 349 kts | 237° |
| 2026-05-04 04:54 | -35.15259 | 149.03227 | 14430 ft | 353 kts | 237° |
| 2026-05-04 04:54 | -35.16853 | 149.00963 | 15211 ft | 353 kts | 237° |
| 2026-05-04 04:55 | -35.18442 | 148.98670 | 15832 ft | 357 kts | 238° |
| 2026-05-04 04:55 | -35.19988 | 148.96318 | 16545 ft | 355 kts | 242° |
| 2026-05-04 04:55 | -35.21204 | 148.93747 | 17148 ft | 348 kts | 255° |
| 2026-05-04 04:55 | -35.21819 | 148.90948 | 17745 ft | 340 kts | 269° |
| 2026-05-04 04:56 | -35.21926 | 148.88100 | 18415 ft | 336 kts | 276° |
| 2026-05-04 04:56 | -35.21858 | 148.85254 | 19026 ft | 337 kts | 278° |
| 2026-05-04 04:56 | -35.21754 | 148.82389 | 19631 ft | 339 kts | 278° |
| 2026-05-04 04:56 | -35.21646 | 148.79520 | 20271 ft | 340 kts | 278° |
| 2026-05-04 04:57 | -35.21540 | 148.76637 | 20835 ft | 342 kts | 279° |
| 2026-05-04 04:57 | -35.21436 | 148.73730 | 21381 ft | 345 kts | 279° |
| 2026-05-04 04:57 | -35.21332 | 148.70793 | 21882 ft | 348 kts | 279° |
| 2026-05-04 04:57 | -35.21231 | 148.67841 | 22437 ft | 350 kts | 279° |
| 2026-05-04 04:58 | -35.21129 | 148.64878 | 22987 ft | 351 kts | 279° |
| 2026-05-04 04:58 | -35.21027 | 148.61903 | 23497 ft | 353 kts | 279° |
| 2026-05-04 04:58 | -35.20923 | 148.58908 | 24010 ft | 355 kts | 279° |
| 2026-05-04 04:58 | -35.20820 | 148.55901 | 24535 ft | 356 kts | 279° |
| 2026-05-04 04:59 | -35.20715 | 148.52883 | 24979 ft | 358 kts | 279° |
| 2026-05-04 04:59 | -35.20609 | 148.49838 | 25455 ft | 360 kts | 279° |
| 2026-05-04 04:59 | -35.20501 | 148.46783 | 25845 ft | 364 kts | 279° |
| 2026-05-04 04:59 | -35.20391 | 148.43701 | 26290 ft | 365 kts | 279° |
| 2026-05-04 05:00 | -35.20280 | 148.40595 | 26682 ft | 368 kts | 279° |
| 2026-05-04 05:00 | -35.20168 | 148.37476 | 27123 ft | 369 kts | 279° |
| 2026-05-04 05:00 | -35.19942 | 148.31189 | 27892 ft | 374 kts | 279° |
| 2026-05-04 05:01 | -35.19828 | 148.28011 | 28309 ft | 376 kts | 280° |
| 2026-05-04 05:01 | -35.19711 | 148.24823 | 28715 ft | 377 kts | 279° |
| 2026-05-04 05:01 | -35.19591 | 148.21610 | 29099 ft | 379 kts | 280° |
| 2026-05-04 05:01 | -35.19469 | 148.18390 | 29478 ft | 380 kts | 280° |
| 2026-05-04 05:02 | -35.19346 | 148.15155 | 29734 ft | 385 kts | 279° |
| 2026-05-04 05:02 | -35.19223 | 148.11909 | 30206 ft | 383 kts | 279° |
| 2026-05-04 05:02 | -35.19098 | 148.08654 | 30497 ft | 385 kts | 279° |
| 2026-05-04 05:02 | -35.18973 | 148.05397 | 30984 ft | 382 kts | 279° |
| 2026-05-04 05:03 | -35.18849 | 148.02168 | 31326 ft | 383 kts | 279° |
| 2026-05-04 05:03 | -35.18721 | 147.98903 | 31585 ft | 385 kts | 279° |
| 2026-05-04 05:04 | -35.18332 | 147.89088 | 32703 ft | 382 kts | 279° |
| 2026-05-04 05:04 | -35.18207 | 147.85873 | 33230 ft | 376 kts | 279° |
| 2026-05-04 05:04 | -35.18083 | 147.82711 | 33707 ft | 371 kts | 279° |
| 2026-05-04 05:06 | -35.17168 | 147.60807 | 35345 ft | 373 kts | 279° |
| 2026-05-04 05:06 | -35.17034 | 147.57653 | 35614 ft | 372 kts | 279° |
| 2026-05-04 05:06 | -35.16900 | 147.54507 | 35925 ft | 370 kts | 279° |
| 2026-05-04 05:07 | -35.16764 | 147.51355 | 35999 ft | 373 kts | 279° |
| 2026-05-04 05:07 | -35.16469 | 147.45066 | 35998 ft | 368 kts | 280° |
| 2026-05-04 05:09 | -35.13960 | 147.17278 | 36005 ft | 366 kts | 282° |
| 2026-05-04 05:10 | -35.13406 | 147.11114 | 35989 ft | 366 kts | 282° |
| 2026-05-04 05:10 | -35.12850 | 147.04944 | 35991 ft | 367 kts | 282° |
| 2026-05-04 05:11 | -35.12289 | 146.98756 | 35990 ft | 367 kts | 282° |
| 2026-05-04 05:11 | -35.11727 | 146.92590 | 35988 ft | 366 kts | 282° |
| 2026-05-04 05:12 | -35.11162 | 146.86421 | 35995 ft | 366 kts | 282° |
| 2026-05-04 05:12 | -35.10593 | 146.80255 | 35990 ft | 366 kts | 282° |
| 2026-05-04 05:13 | -35.10022 | 146.74108 | 35985 ft | 366 kts | 282° |
| 2026-05-04 05:13 | -35.09444 | 146.67927 | 35988 ft | 367 kts | 282° |
| 2026-05-04 05:14 | -35.08866 | 146.61753 | 35976 ft | 367 kts | 282° |
| 2026-05-04 05:14 | -35.08286 | 146.55593 | 35987 ft | 366 kts | 282° |
| 2026-05-04 05:15 | -35.07698 | 146.49408 | 35985 ft | 367 kts | 282° |
| 2026-05-04 05:15 | -35.07110 | 146.43237 | 35978 ft | 367 kts | 282° |
| 2026-05-04 05:16 | -35.06519 | 146.37069 | 35986 ft | 367 kts | 281° |
| 2026-05-04 05:16 | -35.05924 | 146.30892 | 35971 ft | 367 kts | 282° |
| 2026-05-04 05:17 | -35.05326 | 146.24714 | 35969 ft | 368 kts | 282° |
| 2026-05-04 05:17 | -35.04724 | 146.18537 | 35980 ft | 368 kts | 282° |
| 2026-05-04 05:18 | -35.04121 | 146.12375 | 35975 ft | 366 kts | 282° |
| 2026-05-04 05:18 | -35.03515 | 146.06229 | 35973 ft | 367 kts | 282° |
| 2026-05-04 05:19 | -35.02899 | 146.00038 | 35964 ft | 368 kts | 282° |
| 2026-05-04 05:19 | -35.02285 | 145.93861 | 35975 ft | 368 kts | 282° |
| 2026-05-04 05:20 | -35.01671 | 145.87679 | 35973 ft | 367 kts | 282° |
| 2026-05-04 05:20 | -35.01051 | 145.81503 | 35975 ft | 367 kts | 282° |
| 2026-05-04 05:21 | -35.00428 | 145.75350 | 35975 ft | 367 kts | 282° |
| 2026-05-04 05:21 | -34.99800 | 145.69177 | 35965 ft | 369 kts | 282° |
| 2026-05-04 05:22 | -34.99164 | 145.62970 | 35981 ft | 370 kts | 282° |
| 2026-05-04 05:22 | -34.98528 | 145.56764 | 35968 ft | 370 kts | 281° |
| 2026-05-04 05:23 | -34.97887 | 145.50545 | 35979 ft | 371 kts | 282° |
| 2026-05-04 05:23 | -34.97243 | 145.44330 | 35955 ft | 369 kts | 282° |
| 2026-05-04 05:24 | -34.96595 | 145.38116 | 35971 ft | 371 kts | 282° |
| 2026-05-04 05:24 | -34.95943 | 145.31894 | 35964 ft | 371 kts | 282° |
| 2026-05-04 05:25 | -34.95286 | 145.25665 | 35962 ft | 371 kts | 282° |
| 2026-05-04 05:25 | -34.94630 | 145.19455 | 35974 ft | 371 kts | 282° |
| 2026-05-04 05:26 | -34.93963 | 145.13207 | 35956 ft | 374 kts | 282° |
| 2026-05-04 05:26 | -34.93294 | 145.06940 | 35963 ft | 374 kts | 282° |
| 2026-05-04 05:28 | -34.90578 | 144.81992 | 35962 ft | 371 kts | 282° |
| 2026-05-04 05:29 | -34.89891 | 144.75771 | 35956 ft | 372 kts | 282° |
| 2026-05-04 05:29 | -34.89200 | 144.69532 | 35971 ft | 374 kts | 282° |
| 2026-05-04 05:31 | -34.86399 | 144.44534 | 35967 ft | 373 kts | 281° |
| 2026-05-04 05:32 | -34.85689 | 144.38273 | 35971 ft | 375 kts | 281° |
| 2026-05-04 05:33 | -34.84615 | 144.28872 | 35970 ft | 374 kts | 282° |
| 2026-05-04 05:33 | -34.83899 | 144.22628 | 35978 ft | 374 kts | 282° |
| 2026-05-04 05:34 | -34.83176 | 144.16357 | 35978 ft | 374 kts | 281° |
| 2026-05-04 05:34 | -34.82451 | 144.10100 | 35974 ft | 374 kts | 282° |
| 2026-05-04 05:35 | -34.81721 | 144.03836 | 35978 ft | 375 kts | 281° |
| 2026-05-04 05:35 | -34.80989 | 143.97571 | 35977 ft | 376 kts | 281° |
| 2026-05-04 05:36 | -34.80254 | 143.91304 | 35979 ft | 374 kts | 281° |
| 2026-05-04 05:36 | -34.79518 | 143.85063 | 35972 ft | 375 kts | 281° |
| 2026-05-04 05:37 | -34.78776 | 143.78810 | 35974 ft | 375 kts | 281° |
| 2026-05-04 05:37 | -34.78031 | 143.72554 | 35974 ft | 375 kts | 281° |
| 2026-05-04 05:38 | -34.76907 | 143.63154 | 35979 ft | 375 kts | 281° |
| 2026-05-04 05:38 | -34.76155 | 143.56898 | 35977 ft | 376 kts | 281° |
| 2026-05-04 05:39 | -34.75018 | 143.47509 | 35976 ft | 376 kts | 281° |
| 2026-05-04 05:40 | -34.73873 | 143.38110 | 35978 ft | 376 kts | 281° |
| 2026-05-04 05:40 | -34.73105 | 143.31853 | 35980 ft | 375 kts | 281° |
| 2026-05-04 05:41 | -34.72330 | 143.25551 | 35973 ft | 376 kts | 281° |
| 2026-05-04 05:41 | -34.71557 | 143.19292 | 35976 ft | 375 kts | 282° |
| 2026-05-04 05:42 | -34.70778 | 143.13019 | 35973 ft | 376 kts | 282° |
| 2026-05-04 05:42 | -34.69994 | 143.06740 | 35973 ft | 376 kts | 281° |
| 2026-05-04 05:43 | -34.69214 | 143.00490 | 35968 ft | 374 kts | 281° |
| 2026-05-04 05:45 | -34.66039 | 142.75410 | 35968 ft | 377 kts | 281° |
| 2026-05-04 05:47 | -34.63708 | 142.50240 | 35976 ft | 380 kts | 270° |
| 2026-05-04 05:47 | -34.64082 | 142.43860 | 35974 ft | 380 kts | 269° |
| 2026-05-04 05:48 | -34.64426 | 142.38597 | 35975 ft | 382 kts | 269° |
| 2026-05-04 05:48 | -34.64705 | 142.34103 | 35977 ft | 381 kts | 270° |
| 2026-05-04 05:49 | -34.65080 | 142.27700 | 35982 ft | 381 kts | 270° |
| 2026-05-04 05:49 | -34.65439 | 142.21306 | 35973 ft | 381 kts | 270° |
| 2026-05-04 05:51 | -34.66830 | 141.95609 | 35980 ft | 384 kts | 270° |
| 2026-05-04 05:52 | -34.67170 | 141.89164 | 35986 ft | 382 kts | 269° |
| 2026-05-04 05:52 | -34.67507 | 141.82726 | 35982 ft | 382 kts | 269° |
| 2026-05-04 05:54 | -34.68814 | 141.57043 | 35986 ft | 383 kts | 269° |
| 2026-05-04 05:55 | -34.69134 | 141.50518 | 35986 ft | 393 kts | 269° |
| 2026-05-04 05:55 | -34.69460 | 141.43875 | 35977 ft | 395 kts | 269° |
| 2026-05-04 05:56 | -34.69784 | 141.37267 | 35974 ft | 386 kts | 269° |
| 2026-05-04 05:56 | -34.69941 | 141.34092 | 35975 ft | 370 kts | 269° |
| 2026-05-04 05:56 | -34.70091 | 141.31040 | 35976 ft | 356 kts | 269° |
| 2026-05-04 05:57 | -34.70376 | 141.25003 | 35984 ft | 363 kts | 269° |
| 2026-05-04 05:57 | -34.70662 | 141.18809 | 35983 ft | 373 kts | 269° |
| 2026-05-04 05:58 | -34.70957 | 141.12428 | 35974 ft | 383 kts | 269° |
| 2026-05-04 05:58 | -34.71256 | 141.05888 | 35981 ft | 393 kts | 269° |
| 2026-05-04 05:59 | -34.71557 | 140.99237 | 35978 ft | 394 kts | 269° |
| 2026-05-04 05:59 | -34.71857 | 140.92611 | 35985 ft | 395 kts | 269° |
| 2026-05-04 06:00 | -34.72154 | 140.85946 | 35982 ft | 395 kts | 268° |
| 2026-05-04 06:00 | -34.72448 | 140.79288 | 35697 ft | 393 kts | 268° |
| 2026-05-04 06:01 | -34.72590 | 140.76009 | 35264 ft | 390 kts | 268° |
| 2026-05-04 06:01 | -34.72730 | 140.72738 | 34710 ft | 390 kts | 268° |
| 2026-05-04 06:03 | -34.73689 | 140.49862 | 30783 ft | 375 kts | 266° |
| 2026-05-04 06:03 | -34.73815 | 140.46734 | 30337 ft | 370 kts | 266° |
| 2026-05-04 06:05 | -34.74661 | 140.25511 | 27072 ft | 357 kts | 265° |
| 2026-05-04 06:05 | -34.74890 | 140.19570 | 26184 ft | 349 kts | 265° |
| 2026-05-04 06:05 | -34.75002 | 140.16653 | 25727 ft | 345 kts | 265° |
| 2026-05-04 06:06 | -34.75112 | 140.13757 | 25271 ft | 342 kts | 265° |
| 2026-05-04 06:06 | -34.75221 | 140.10888 | 24817 ft | 342 kts | 265° |
| 2026-05-04 06:06 | -34.75333 | 140.07980 | 24352 ft | 349 kts | 265° |
| 2026-05-04 06:06 | -34.75444 | 140.05040 | 23884 ft | 348 kts | 264° |
| 2026-05-04 06:07 | -34.75552 | 140.02128 | 23406 ft | 345 kts | 264° |
| 2026-05-04 06:07 | -34.75657 | 139.99246 | 22942 ft | 341 kts | 264° |
| 2026-05-04 06:07 | -34.75761 | 139.96392 | 22484 ft | 338 kts | 264° |
| 2026-05-04 06:07 | -34.75865 | 139.93566 | 22018 ft | 334 kts | 264° |
| 2026-05-04 06:08 | -34.75966 | 139.90767 | 21562 ft | 331 kts | 264° |
| 2026-05-04 06:08 | -34.76066 | 139.87991 | 21108 ft | 329 kts | 264° |
| 2026-05-04 06:08 | -34.76168 | 139.85215 | 20646 ft | 331 kts | 265° |
| 2026-05-04 06:08 | -34.76269 | 139.82417 | 20188 ft | 332 kts | 265° |
| 2026-05-04 06:09 | -34.76367 | 139.79638 | 19725 ft | 329 kts | 265° |
| 2026-05-04 06:09 | -34.76462 | 139.76889 | 19266 ft | 325 kts | 265° |
| 2026-05-04 06:11 | -34.77103 | 139.58196 | 16084 ft | 314 kts | 265° |
| 2026-05-04 06:11 | -34.77191 | 139.55558 | 15623 ft | 311 kts | 265° |
| 2026-05-04 06:13 | -34.77744 | 139.37584 | 12532 ft | 304 kts | 266° |
| 2026-05-04 06:14 | -34.78087 | 139.22587 | 10002 ft | 289 kts | 268° |
| 2026-05-04 06:14 | -34.78143 | 139.20158 | 9594 ft | 287 kts | 267° |
| 2026-05-04 06:15 | -34.78197 | 139.17742 | 9168 ft | 286 kts | 268° |
| 2026-05-04 06:15 | -34.78250 | 139.15342 | 8780 ft | 283 kts | 268° |
| 2026-05-04 06:15 | -34.78300 | 139.12969 | 8352 ft | 282 kts | 268° |
| 2026-05-04 06:15 | -34.78354 | 139.10598 | 7942 ft | 280 kts | 267° |
| 2026-05-04 06:16 | -34.78408 | 139.08248 | 7544 ft | 278 kts | 267° |
| 2026-05-04 06:16 | -34.78462 | 139.05908 | 7135 ft | 277 kts | 267° |
| 2026-05-04 06:16 | -34.78514 | 139.03585 | 6741 ft | 275 kts | 267° |
| 2026-05-04 06:16 | -34.78564 | 139.01273 | 6343 ft | 273 kts | 267° |
| 2026-05-04 06:17 | -34.78613 | 138.98981 | 5960 ft | 271 kts | 267° |
| 2026-05-04 06:17 | -34.78660 | 138.96728 | 5751 ft | 262 kts | 267° |
| 2026-05-04 06:17 | -34.78704 | 138.94564 | 5655 ft | 250 kts | 267° |
| 2026-05-04 06:17 | -34.78746 | 138.92498 | 5562 ft | 239 kts | 267° |
| 2026-05-04 06:18 | -34.78787 | 138.90483 | 5475 ft | 241 kts | 267° |
| 2026-05-04 06:18 | -34.78828 | 138.88474 | 5360 ft | 235 kts | 267° |
| 2026-05-04 06:18 | -34.78867 | 138.86510 | 5067 ft | 233 kts | 267° |
| 2026-05-04 06:20 | -34.80379 | 138.73980 | 3990 ft | 209 kts | 227° |
| 2026-05-04 06:20 | -34.81381 | 138.72697 | 3855 ft | 210 kts | 229° |
| 2026-05-04 06:21 | -34.85094 | 138.67357 | 3795 ft | 206 kts | 231° |
| 2026-05-04 06:21 | -34.86009 | 138.66031 | 3737 ft | 201 kts | 231° |
| 2026-05-04 06:22 | -34.86889 | 138.64759 | 3634 ft | 191 kts | 231° |
| 2026-05-04 06:22 | -34.87704 | 138.63581 | 3516 ft | 173 kts | 231° |
| 2026-05-04 06:25 | -34.95222 | 138.52635 | 31 ft | 13 kts | 231° |
| 2026-05-04 06:25 | -34.95228 | 138.52549 | 31 ft | 10 kts | 316° |
| 2026-05-04 06:26 | -34.95174 | 138.52493 | 31 ft | 9 kts | 319° |
| 2026-05-04 06:26 | -34.95120 | 138.52457 | 31 ft | 8 kts | 343° |
| 2026-05-04 06:26 | -34.95063 | 138.52452 | 31 ft | 10 kts | 4° |
| 2026-05-04 06:26 | -34.94974 | 138.52505 | 31 ft | 17 kts | 38° |
| 2026-05-04 06:27 | -34.94472 | 138.52979 | 31 ft | 16 kts | 44° |
| 2026-05-04 06:28 | -34.94452 | 138.53095 | 34 ft | 13 kts | 112° |
| 2026-05-04 06:28 | -34.94497 | 138.53188 | 34 ft | 11 kts | 120° |
| 2026-05-04 06:28 | -34.94520 | 138.53281 | 34 ft | 11 kts | 87° |
| 2026-05-04 06:28 | -34.94491 | 138.53365 | 34 ft | 10 kts | 51° |
| 2026-05-04 06:29 | -34.94444 | 138.53434 | 34 ft | 10 kts | 50° |
| 2026-05-04 06:29 | -34.94398 | 138.53501 | 34 ft | 10 kts | 50° |
| 2026-05-04 06:29 | -34.94352 | 138.53567 | 34 ft | 10 kts | 50° |
| 2026-05-04 06:29 | -34.94307 | 138.53633 | 35 ft | 10 kts | 50° |
| 2026-05-04 06:30 | -34.94254 | 138.53657 | 36 ft | 7 kts | 349° |
| 2026-05-04 06:30 | -34.94199 | 138.53638 | 37 ft | 9 kts | 13° |
| 2026-05-04 06:30 | -34.94155 | 138.53686 | 38 ft | 9 kts | 50° |
| 2026-05-04 06:30 | -34.94107 | 138.53707 | 38 ft | 6 kts | 333° |
| 2026-05-04 06:31 | -34.94081 | 138.53685 | 38 ft | 2 kts | 320° |
| 2026-05-04 06:31 | -34.94072 | 138.53676 | 38 ft | 1 kts | 319° |
| 2026-05-04 06:31 | -34.94064 | 138.53668 | 38 ft | 1 kts | 320° |
| 2026-05-04 06:31 | -34.94058 | 138.53662 | 38 ft | 0 kts | 319° |